Time;durP1;ratioP1;P1;durP2;ratioP2;P2;SDS_P1;SDS_P2;PMS_P1;PMS_P2;Temp;Humidity;BMP_temperature;BMP_pressure;BME280_temperature;BME280_humidity;BME280_pressure;Samples;Min_cycle;Max_cycle;Signal;HPM_P1;HPM_P2
2023/09/09 00:04:11;;;;;;;16.48;12.65;;;;;;;18.69;63.09;101419.31;15735089;28;19920;-44
2023/09/09 00:11:46;;;;;;;18.48;13.15;;;;;;;18.55;63.52;101418.78;15730706;28;20037;-45
2023/09/09 00:19:21;;;;;;;17.13;13.98;;;;;;;18.44;64.01;101412.38;15674915;28;20045;-45
2023/09/09 00:27:00;;;;;;;19.05;13.77;;;;;;;18.35;63.99;101406.50;15677327;28;20048;-43
2023/09/09 00:34:36;;;;;;;16.63;13.07;;;;;;;17.99;65.21;101415.06;15733202;28;20062;-43
2023/09/09 00:42:10;;;;;;;18.58;13.98;;;;;;;18.09;64.66;101412.53;15734032;28;20284;-43
2023/09/09 00:49:43;;;;;;;21.20;13.73;;;;;;;18.00;65.01;101414.84;15733296;28;20374;-41
2023/09/09 00:57:18;;;;;;;20.30;14.13;;;;;;;18.00;65.13;101403.13;15734768;28;20052;-45
2023/09/09 01:04:51;;;;;;;17.10;13.95;;;;;;;17.91;65.42;101412.78;15716787;28;20451;-46
2023/09/09 01:12:43;;;;;;;19.77;14.93;;;;;;;17.76;65.78;101396.97;15722440;28;20049;-42
2023/09/09 01:20:21;;;;;;;18.13;15.27;;;;;;;17.75;65.80;101395.34;15676785;28;20068;-46
2023/09/09 01:27:55;;;;;;;17.58;14.93;;;;;;;17.62;66.19;101390.16;15728105;28;20044;-44
2023/09/09 01:35:28;;;;;;;20.60;16.23;;;;;;;17.60;65.84;101395.84;15732127;28;20524;-43
2023/09/09 01:43:03;;;;;;;18.27;15.50;;;;;;;17.44;66.67;101391.16;15731423;28;20041;-46
2023/09/09 01:50:36;;;;;;;19.30;16.00;;;;;;;17.40;66.61;101381.88;15732809;28;20530;-46
2023/09/09 01:58:10;;;;;;;19.52;16.08;;;;;;;17.23;67.31;101396.16;15731071;28;20041;-46
2023/09/09 02:05:43;;;;;;;21.77;15.63;;;;;;;17.22;66.86;101388.25;15741095;28;20497;-44
2023/09/09 02:13:18;;;;;;;18.98;16.15;;;;;;;17.07;67.33;101386.03;15728639;28;20082;-50
2023/09/09 02:20:57;;;;;;;19.73;16.60;;;;;;;17.02;67.59;101380.47;15721368;28;20047;-50
2023/09/09 02:28:32;;;;;;;21.27;15.98;;;;;;;16.87;68.13;101375.53;15742499;28;20047;-51
2023/09/09 02:36:06;;;;;;;20.33;16.67;;;;;;;16.94;67.98;101383.56;15724518;28;20127;-45
2023/09/09 02:43:40;;;;;;;19.85;17.02;;;;;;;17.03;67.76;101374.03;15725140;28;20049;-45
2023/09/09 02:51:13;;;;;;;21.98;17.55;;;;;;;17.11;67.52;101375.53;15723709;28;20139;-46
2023/09/09 02:58:47;;;;;;;;;;;;;;;16.96;67.76;101366.00;15740299;28;20230;-42
2023/09/09 03:06:20;;;;;;;26.02;20.52;;;;;;;16.73;68.32;101371.41;15739401;28;19943;-44
2023/09/09 03:13:55;;;;;;;23.67;21.02;;;;;;;16.59;68.30;101365.38;15738722;28;20082;-48
2023/09/09 03:21:42;;;;;;;22.25;18.05;;;;;;;16.56;68.35;101363.16;15738444;28;20512;-45
2023/09/09 03:29:31;;;;;;;23.90;18.60;;;;;;;16.53;68.56;101367.16;15738197;28;20086;-49
2023/09/09 03:37:07;;;;;;;22.85;19.40;;;;;;;16.51;68.71;101376.59;15737463;28;20098;-44
2023/09/09 03:44:45;;;;;;;25.88;20.02;;;;;;;16.52;68.02;101378.22;15737622;28;20120;-44
2023/09/09 03:52:55;;;;;;;;;;;;;;;;;;;;;
2023/09/09 04:00:30;;;;;;;21.70;18.25;;;;;;;16.43;68.56;101377.75;15736734;28;20132;-50
2023/09/09 04:08:08;;;;;;;21.85;18.40;;;;;;;16.29;69.29;101379.84;15735864;28;20053;-44
2023/09/09 04:15:44;;;;;;;23.58;18.90;;;;;;;16.27;68.90;101387.38;15734960;28;20745;-43
2023/09/09 04:23:18;;;;;;;23.10;18.35;;;;;;;16.20;69.11;101381.22;15734508;28;20139;-46
2023/09/09 04:31:32;;;;;;;24.10;20.17;;;;;;;16.12;69.38;101381.53;15733990;28;20040;-43
2023/09/09 04:39:06;;;;;;;23.38;19.38;;;;;;;16.16;69.94;101379.22;15717207;28;20114;-47
2023/09/09 04:46:41;;;;;;;23.02;19.98;;;;;;;16.16;69.86;101376.50;15733969;28;20048;-47
2023/09/09 04:54:18;;;;;;;25.65;20.20;;;;;;;16.25;70.06;101378.66;15716799;28;20503;-47
2023/09/09 05:01:52;;;;;;;28.23;21.30;;;;;;;16.48;70.24;101377.88;15732623;28;20401;-48
2023/09/09 05:09:27;;;;;;;22.95;19.77;;;;;;;16.63;69.66;101380.09;15732370;28;20168;-47
2023/09/09 05:17:01;;;;;;;25.20;20.27;;;;;;;16.74;69.63;101384.75;15716386;28;20044;-43
2023/09/09 05:24:36;;;;;;;28.83;21.48;;;;;;;17.13;69.39;101386.97;15715941;28;20064;-44
2023/09/09 05:32:13;;;;;;;25.55;20.63;;;;;;;17.48;68.81;101387.72;15726972;28;20039;-45
2023/09/09 05:39:51;;;;;;;26.27;20.58;;;;;;;17.76;68.41;101383.41;15665060;28;20075;-44
2023/09/09 05:47:35;;;;;;;22.63;19.45;;;;;;;18.04;68.04;101399.69;15682431;28;20055;-44
2023/09/09 05:55:16;;;;;;;25.50;18.75;;;;;;;18.17;67.43;101389.59;15681470;28;20090;-45
2023/09/09 06:02:51;;;;;;;23.02;17.83;;;;;;;18.32;67.64;101396.09;15683991;28;20547;-46
2023/09/09 06:10:25;;;;;;;20.00;17.25;;;;;;;18.67;67.01;101395.06;15727392;28;20040;-49
2023/09/09 06:18:00;;;;;;;21.90;17.02;;;;;;;18.45;67.28;101402.31;15729259;28;20128;-45
2023/09/09 06:25:33;;;;;;;21.05;16.30;;;;;;;19.07;65.79;101404.91;15694458;28;20296;-47
2023/09/09 06:33:08;;;;;;;19.60;15.43;;;;;;;19.31;64.85;101413.72;15727942;28;20072;-49
2023/09/09 06:40:48;;;;;;;17.85;14.75;;;;;;;19.40;64.72;101420.38;15741217;28;20032;-48
2023/09/09 06:48:38;;;;;;;17.30;14.88;;;;;;;19.91;63.23;101423.75;15741416;28;20139;-43
2023/09/09 06:56:15;;;;;;;20.25;13.70;;;;;;;20.50;62.62;101421.06;15740104;28;20090;-45
2023/09/09 07:03:50;;;;;;;16.58;13.07;;;;;;;21.08;60.38;101426.69;15741437;28;20033;-45
2023/09/09 07:11:23;;;;;;;16.83;11.95;;;;;;;21.91;57.94;101424.03;15740806;28;20128;-43
2023/09/09 07:18:57;;;;;;;15.30;11.70;;;;;;;21.91;56.83;101430.31;15739434;28;20060;-48
2023/09/09 07:26:30;;;;;;;12.60;10.35;;;;;;;22.64;55.30;101419.22;15738523;28;20082;-50
2023/09/09 07:34:11;;;;;;;16.73;10.40;;;;;;;23.00;52.85;101415.69;15740458;28;20041;-44
2023/09/09 07:41:51;;;;;;;14.27;9.93;;;;;;;23.48;51.32;101419.63;15738981;28;20051;-44
2023/09/09 07:49:27;;;;;;;11.77;9.57;;;;;;;23.76;50.52;101420.09;15739171;28;20505;-49
2023/09/09 07:57:01;;;;;;;12.82;9.40;;;;;;;24.49;49.38;101430.34;15737768;28;20079;-46
2023/09/09 08:04:36;;;;;;;10.73;9.35;;;;;;;24.59;46.98;101427.50;15737930;28;20543;-43
2023/09/09 08:12:09;;;;;;;12.13;9.38;;;;;;;24.59;47.35;101414.59;15714790;28;20162;-48
2023/09/09 08:19:43;;;;;;;13.30;9.00;;;;;;;25.14;46.53;101420.69;15736535;28;20044;-48
2023/09/09 08:27:16;;;;;;;10.65;8.40;;;;;;;25.91;45.05;101415.06;15736399;28;20061;-45
2023/09/09 08:34:59;;;;;;;12.82;8.90;;;;;;;26.16;44.11;101424.88;15734545;28;20037;-46
2023/09/09 08:42:56;;;;;;;11.63;8.57;;;;;;;26.10;43.52;101428.00;15734953;28;20047;-44
2023/09/09 08:50:33;;;;;;;11.25;8.23;;;;;;;27.27;40.21;101420.50;15735028;28;20492;-42
2023/09/09 08:58:28;;;;;;;9.32;7.47;;;;;;;27.77;39.19;101423.34;15735391;28;20048;-46
2023/09/09 09:06:05;;;;;;;10.38;7.90;;;;;;;28.29;38.97;101414.69;15732614;28;20179;-44
2023/09/09 09:13:39;;;;;;;9.15;8.07;;;;;;;28.19;39.30;101419.34;15716367;28;20067;-47
2023/09/09 09:21:13;;;;;;;11.48;7.90;;;;;;;29.15;36.69;101417.22;15717840;28;20151;-47
2023/09/09 09:28:46;;;;;;;9.07;7.35;;;;;;;29.82;35.76;101400.31;15730751;28;20041;-49
2023/09/09 09:36:22;;;;;;;9.70;6.68;;;;;;;28.91;35.85;101403.72;15733271;28;20068;-44
2023/09/09 09:44:05;;;;;;;6.53;5.55;;;;;;;29.64;33.45;101398.66;15732364;28;20178;-47
2023/09/09 09:51:45;;;;;;;10.27;5.05;;;;;;;31.04;32.04;101386.28;15722078;22;20079;-74
2023/09/09 09:59:20;;;;;;;7.82;5.70;;;;;;;31.33;32.32;101382.72;15704880;28;20125;-72
2023/09/09 10:06:57;;;;;;;11.48;6.03;;;;;;;31.94;31.01;101372.03;15731384;28;20058;-72
2023/09/09 10:14:32;;;;;;;6.15;5.43;;;;;;;32.26;30.18;101375.97;15683266;28;20069;-73
2023/09/09 10:22:07;;;;;;;9.13;6.85;;;;;;;33.05;28.72;101357.28;15681144;28;20045;-74
2023/09/09 10:29:45;;;;;;;8.07;4.78;;;;;;;32.60;27.13;101355.38;15681052;28;20048;-74
2023/09/09 10:37:20;;;;;;;7.35;4.72;;;;;;;31.52;28.14;101366.44;15678492;28;20075;-74
2023/09/09 10:44:54;;;;;;;6.32;4.80;;;;;;;32.18;27.60;101363.00;15682874;28;20033;-72
2023/09/09 10:52:33;;;;;;;6.30;4.68;;;;;;;32.69;26.96;101349.69;15736976;28;20574;-73
2023/09/09 11:00:09;;;;;;;5.72;4.60;;;;;;;32.53;27.19;101340.41;15709274;28;20048;-72
2023/09/09 11:07:45;;;;;;;6.90;4.40;;;;;;;33.20;25.19;101337.13;15699191;28;20044;-73
2023/09/09 11:15:19;;;;;;;7.68;4.38;;;;;;;32.65;25.93;101334.88;15711470;28;20045;-74
2023/09/09 11:22:56;;;;;;;4.95;3.83;;;;;;;33.68;24.77;101329.84;15694076;28;20354;-73
2023/09/09 11:30:41;;;;;;;9.10;4.15;;;;;;;34.40;23.44;101327.06;15724031;28;20040;-73
2023/09/09 11:38:19;;;;;;;4.45;3.53;;;;;;;34.50;22.92;101322.97;15738776;28;20115;-72
2023/09/09 11:46:03;;;;;;;4.95;3.53;;;;;;;34.23;21.29;101307.91;15725757;28;20036;-72
2023/09/09 11:54:00;;;;;;;4.75;3.20;;;;;;;33.54;23.24;101300.78;15726923;28;20044;-73
2023/09/09 12:01:41;;;;;;;5.03;3.38;;;;;;;34.37;22.58;101299.09;15724473;28;20117;-72
2023/09/09 12:09:15;;;;;;;4.72;3.53;;;;;;;34.49;21.81;101296.25;15736168;28;20060;-74
2023/09/09 12:16:49;;;;;;;5.47;3.20;;;;;;;35.87;21.13;101281.06;15689757;28;20044;-73
2023/09/09 12:24:23;;;;;;;4.22;3.53;;;;;;;35.03;21.42;101287.25;15697211;28;20036;-74
2023/09/09 12:31:59;;;;;;;7.35;3.60;;;;;;;36.14;23.16;101283.94;15713953;28;20135;-73
2023/09/09 12:39:35;;;;;;;6.65;3.30;;;;;;;36.57;20.36;101271.56;15708909;28;20059;-74
2023/09/09 12:47:08;;;;;;;7.57;3.45;;;;;;;35.14;20.85;101285.50;15730482;28;20502;-74
2023/09/09 12:54:42;;;;;;;12.48;3.22;;;;;;;34.56;22.21;101284.50;15727881;28;20513;-74
2023/09/09 13:02:15;;;;;;;6.13;3.40;;;;;;;35.48;20.66;101275.47;15712972;28;20118;-74
2023/09/09 13:09:50;;;;;;;5.78;3.20;;;;;;;35.71;20.84;101272.75;15733444;28;20494;-74
2023/09/09 13:17:23;;;;;;;4.75;2.90;;;;;;;34.62;21.89;101278.28;15692567;28;20466;-75
2023/09/09 13:24:57;;;;;;;6.55;3.38;;;;;;;35.13;20.71;101272.72;15722875;28;20044;-74
2023/09/09 13:32:30;;;;;;;5.60;3.80;;;;;;;36.68;20.20;101260.53;15726859;28;20547;-73
2023/09/09 13:40:06;;;;;;;5.07;3.60;;;;;;;34.48;21.42;101264.78;15708622;28;20131;-74
2023/09/09 13:47:39;;;;;;;4.95;3.60;;;;;;;33.84;22.64;101267.81;15732950;28;20411;-74
2023/09/09 13:55:21;;;;;;;5.43;3.70;;;;;;;33.92;22.62;101264.06;15708274;28;20072;-73
2023/09/09 14:02:59;;;;;;;5.47;3.75;;;;;;;32.68;24.45;101262.72;15706381;28;20037;-74
2023/09/09 14:10:34;;;;;;;6.85;4.13;;;;;;;32.85;24.70;101255.28;15683823;22;20049;-50
2023/09/09 14:18:07;;;;;;;9.40;4.18;;;;;;;32.12;25.58;101248.50;15623892;28;20087;-52
2023/09/09 14:25:42;;;;;;;8.80;4.07;;;;;;;32.59;26.41;101245.34;15667143;22;20477;-53
2023/09/09 14:33:15;;;;;;;5.72;4.40;;;;;;;32.24;26.22;101242.97;15680735;28;20268;-54
2023/09/09 14:40:49;;;;;;;8.95;4.30;;;;;;;31.55;26.30;101238.13;15679774;28;20148;-55
2023/09/09 14:48:23;;;;;;;5.53;4.15;;;;;;;32.22;26.52;101233.34;15662075;28;20050;-53
2023/09/09 14:55:57;;;;;;;7.90;4.18;;;;;;;31.94;26.82;101228.47;15679334;28;20033;-55
2023/09/09 15:03:30;;;;;;;9.73;4.22;;;;;;;31.99;26.43;101224.66;15660683;28;20055;-54
2023/09/09 15:11:06;;;;;;;5.75;4.03;;;;;;;31.40;25.99;101222.09;15660582;28;20160;-52
2023/09/09 15:19:00;;;;;;;5.43;3.92;;;;;;;31.87;25.51;101213.50;15656026;28;20114;-52
2023/09/09 15:26:38;;;;;;;6.00;3.80;;;;;;;31.57;25.23;101210.03;15678452;28;20411;-50
2023/09/09 15:34:11;;;;;;;7.20;4.10;;;;;;;31.32;25.00;101217.44;15658816;28;20136;-53
2023/09/09 15:41:56;;;;;;;5.40;4.45;;;;;;;31.20;23.47;101210.66;15657889;28;20056;-53
2023/09/09 15:49:29;;;;;;;11.30;4.78;;;;;;;31.67;23.29;101215.16;15675552;28;20413;-53
2023/09/09 15:57:05;;;;;;;6.78;3.92;;;;;;;31.57;25.77;101215.56;15659037;28;20052;-53
2023/09/09 16:04:39;;;;;;;7.00;4.15;;;;;;;31.48;26.04;101219.25;15674855;28;20168;-52
2023/09/09 16:12:13;;;;;;;8.23;3.85;;;;;;;31.32;27.38;101211.88;15672584;28;20144;-53
2023/09/09 16:19:48;;;;;;;5.70;4.00;;;;;;;31.32;28.82;101217.44;15673110;28;20111;-54
2023/09/09 16:27:23;;;;;;;5.15;4.03;;;;;;;31.06;29.40;101212.06;15672928;28;20037;-53
2023/09/09 16:34:58;;;;;;;14.98;4.22;;;;;;;30.67;31.69;101216.84;15659871;28;20041;-55
2023/09/09 16:51:44;;;;;;;13.90;4.43;;;;;;;29.59;36.95;101224.50;15671348;28;20048;-50
2023/09/09 16:59:16;;;;;;;8.82;4.68;;;;;;;29.00;38.38;101227.72;15671574;28;20462;-54
2023/09/09 17:06:51;;;;;;;9.68;4.95;;;;;;;28.65;39.81;101224.84;15666251;28;20044;-51
2023/09/09 17:14:27;;;;;;;6.32;4.90;;;;;;;28.28;39.46;101226.16;15670247;28;20124;-52
2023/09/09 17:22:02;;;;;;;8.05;5.20;;;;;;;27.89;39.74;101224.97;15665723;28;20048;-50
2023/09/09 17:29:35;;;;;;;12.43;8.57;;;;;;;27.34;41.28;101233.47;15639157;28;20430;-51
2023/09/09 17:37:10;;;;;;;18.20;12.75;;;;;;;26.98;42.05;101241.66;15684560;28;20064;-52
2023/09/09 17:44:43;;;;;;;11.80;8.15;;;;;;;26.64;43.15;101253.94;15682990;28;20055;-48
2023/09/09 17:52:17;;;;;;;11.07;6.93;;;;;;;26.28;43.09;101250.22;15665229;28;20123;-51
2023/09/09 17:59:50;;;;;;;12.57;6.82;;;;;;;25.97;44.09;101255.44;15664626;28;20186;-50
2023/09/09 18:07:26;;;;;;;14.85;6.80;;;;;;;25.34;45.59;101259.41;15692552;28;20103;-53
2023/09/09 18:14:59;;;;;;;14.52;10.38;;;;;;;25.21;45.25;101268.38;15682784;28;20381;-53
2023/09/09 18:22:37;;;;;;;14.63;10.25;;;;;;;24.91;46.42;101276.72;15665882;28;20135;-49
2023/09/09 18:30:15;;;;;;;11.98;7.78;;;;;;;24.76;49.10;101276.91;15670896;28;20041;-51
2023/09/09 18:37:49;;;;;;;13.82;7.78;;;;;;;24.57;50.57;101276.81;15660345;28;20102;-49
2023/09/09 18:45:22;;;;;;;15.85;8.18;;;;;;;24.17;51.59;101273.34;15681811;28;20037;-48
2023/09/09 18:52:59;;;;;;;18.05;8.55;;;;;;;23.87;51.11;101274.41;15668822;28;20037;-53
2023/09/09 19:00:32;;;;;;;14.98;9.05;;;;;;;23.66;51.47;101281.16;15676580;28;20110;-53
2023/09/09 19:08:08;;;;;;;14.55;10.07;;;;;;;23.34;52.02;101279.69;15663494;28;20080;-52
2023/09/09 19:15:41;;;;;;;20.90;10.52;;;;;;;23.08;53.44;101289.97;15661371;28;20516;-54
2023/09/09 19:23:16;;;;;;;15.80;9.98;;;;;;;22.82;53.29;101289.22;15661302;28;20040;-51
2023/09/09 19:30:49;;;;;;;17.13;10.25;;;;;;;22.74;53.80;101284.28;15649020;28;20041;-50
2023/09/09 19:38:26;;;;;;;19.65;9.85;;;;;;;22.65;53.81;101285.97;15654474;28;20045;-50
2023/09/09 19:46:00;;;;;;;16.30;10.40;;;;;;;22.87;51.97;101288.38;15660384;28;20115;-56
2023/09/09 19:53:35;;;;;;;17.80;12.48;;;;;;;23.04;51.92;101285.34;15666983;28;20084;-55
2023/09/09 20:01:08;;;;;;;17.02;9.85;;;;;;;22.78;52.29;101277.16;15674007;28;20126;-54
2023/09/09 20:08:43;;;;;;;15.98;9.32;;;;;;;22.39;53.09;101274.28;15671404;28;20561;-50
2023/09/09 20:16:16;;;;;;;13.30;9.98;;;;;;;22.23;53.26;101287.13;15666254;28;20061;-51
2023/09/09 20:23:51;;;;;;;15.95;11.05;;;;;;;22.13;54.10;101287.97;15669300;28;20060;-50
2023/09/09 20:31:25;;;;;;;18.63;11.27;;;;;;;21.89;55.44;101286.84;15672839;28;20041;-44
2023/09/09 20:39:00;;;;;;;17.55;12.13;;;;;;;21.67;55.53;101289.00;15668200;28;20071;-47
2023/09/09 20:46:32;;;;;;;18.92;14.70;;;;;;;21.46;56.14;101282.69;15670599;28;20110;-50
2023/09/09 20:54:10;;;;;;;19.88;13.43;;;;;;;21.31;56.90;101281.56;15664840;28;20176;-43
2023/09/09 21:01:45;;;;;;;19.25;13.75;;;;;;;21.03;57.65;101287.41;15656464;28;20049;-49
2023/09/09 21:09:20;;;;;;;19.83;14.63;;;;;;;20.84;58.19;101290.63;15650859;28;20118;-47
2023/09/09 21:16:52;;;;;;;20.35;13.98;;;;;;;20.52;59.46;101285.25;15666075;28;20059;-43
2023/09/09 21:24:27;;;;;;;16.92;13.63;;;;;;;20.37;59.89;101283.19;15670266;28;20044;-51
2023/09/09 21:31:59;;;;;;;17.73;13.95;;;;;;;20.21;60.48;101280.66;15670890;28;20479;-48
2023/09/09 21:39:40;;;;;;;19.58;15.60;;;;;;;19.96;61.04;101284.81;15651528;28;20139;-46
2023/09/09 21:47:18;;;;;;;19.17;15.13;;;;;;;19.91;61.28;101283.94;15651110;28;20073;-44
2023/09/09 21:54:53;;;;;;;21.88;15.80;;;;;;;19.82;61.70;101278.16;15685727;28;20040;-44
2023/09/09 22:02:26;;;;;;;20.55;14.82;;;;;;;19.71;62.17;101270.94;15670286;28;20049;-48
2023/09/09 22:10:03;;;;;;;25.23;18.88;;;;;;;19.59;62.22;101260.19;15670071;28;20045;-45
2023/09/09 22:17:37;;;;;;;33.10;23.63;;;;;;;19.45;62.94;101256.25;15673177;28;20250;-48
2023/09/09 22:25:13;;;;;;;29.48;23.00;;;;;;;19.21;63.33;101263.84;15696417;28;20041;-44
2023/09/09 22:32:46;;;;;;;30.00;21.08;;;;;;;19.20;63.12;101257.59;15678711;28;20152;-44
2023/09/09 22:40:21;;;;;;;25.70;19.95;;;;;;;19.01;63.89;101259.81;15678419;28;20090;-45
2023/09/09 22:47:57;;;;;;;30.25;21.50;;;;;;;18.99;63.33;101261.19;15661543;28;20041;-43
2023/09/09 22:55:32;;;;;;;26.65;19.95;;;;;;;18.83;63.90;101252.81;15680483;28;20044;-43
2023/09/09 23:03:09;;;;;;;25.27;18.38;;;;;;;18.72;64.40;101252.94;15680139;28;20041;-43
2023/09/09 23:10:44;;;;;;;20.15;16.52;;;;;;;18.59;64.46;101251.38;15677320;28;20057;-48
2023/09/09 23:18:18;;;;;;;25.17;16.95;;;;;;;18.61;63.85;101251.97;15678105;28;20044;-43
2023/09/09 23:25:53;;;;;;;23.75;16.52;;;;;;;18.45;64.46;101263.69;15666708;28;20045;-43
2023/09/09 23:33:31;;;;;;;27.48;20.02;;;;;;;18.39;65.11;101253.81;15716585;22;20497;-74
2023/09/09 23:41:08;;;;;;;27.77;19.65;;;;;;;18.21;65.50;101254.91;15742252;28;20514;-75
2023/09/09 23:48:42;;;;;;;28.33;20.58;;;;;;;18.14;65.56;101252.38;15701782;28;20060;-75
2023/09/09 23:56:16;;;;;;;;;;;;;;;18.05;65.65;101240.25;15736912;28;20056;-75
